Time;durP1;ratioP1;P1;durP2;ratioP2;P2;SDS_P1;SDS_P2;PMS_P1;PMS_P2;Temp;Humidity;BMP_temperature;BMP_pressure;BME280_temperature;BME280_humidity;BME280_pressure;Samples;Min_cycle;Max_cycle;Signal;HPM_P1;HPM_P2
2022/11/08 00:01:31;;;;;;;;;;;7.00;83.30;;;;;;5075816;28;19965;-86
2022/11/08 00:03:57;;;;;;;;;;;6.90;83.80;;;;;;5073951;28;20042;-86
2022/11/08 00:14:35;;;;;;;;;;;7.10;84.40;;;;;;5075901;28;20073;-86
2022/11/08 00:17:00;;;;;;;;;;;7.00;84.20;;;;;;5075584;28;20046;-86
2022/11/08 00:19:26;;;;;;;;;;;6.90;84.50;;;;;;5075535;28;19935;-86
2022/11/08 00:21:51;;;;;;;;;;;6.70;84.30;;;;;;5073656;28;19964;-86
2022/11/08 00:24:17;;;;;;;;;;;6.60;87.20;;;;;;5074730;28;19959;-86
2022/11/08 00:26:42;;;;;;;;;;;6.40;88.30;;;;;;5075407;28;19943;-86
2022/11/08 00:29:08;;;;;;;;;;;6.30;88.10;;;;;;5075202;28;20346;-86
2022/11/08 00:31:33;;;;;;;;;;;6.40;87.70;;;;;;5074474;28;19966;-86
2022/11/08 00:33:59;;;;;;;;;;;6.40;88.00;;;;;;5075208;28;19943;-87
2022/11/08 00:36:24;;;;;;;;;;;6.40;87.70;;;;;;5075235;28;19941;-86
2022/11/08 00:38:50;;;;;;;;;;;6.50;87.60;;;;;;5057173;28;19996;-86
2022/11/08 00:41:15;;;;;;;;;;;6.60;86.70;;;;;;5074284;28;19965;-86
2022/11/08 00:43:41;;;;;;;;;;;6.60;86.50;;;;;;5075035;28;20363;-86
2022/11/08 00:46:07;;;;;;;;;;;6.70;87.00;;;;;;5074297;28;19993;-86
2022/11/08 00:48:32;;;;;;;;;;;6.60;86.90;;;;;;5075018;28;19937;-86
2022/11/08 00:51:02;;;;;;;;;;;6.60;87.00;;;;;;5074586;28;19964;-86
2022/11/08 00:53:27;;;;;;;;;;;6.60;86.90;;;;;;5074737;28;19987;-86
2022/11/08 00:56:00;;;;;;;;;;;6.50;87.30;;;;;;5073525;28;19945;-86
2022/11/08 00:58:26;;;;;;;;;;;6.50;88.40;;;;;;5074799;28;19940;-86
2022/11/08 01:00:51;;;;;;;;;;;6.40;88.80;;;;;;5073921;28;19947;-86
2022/11/08 01:03:20;;;;;;;;;;;6.20;90.00;;;;;;5074701;28;19950;-85
2022/11/08 01:05:46;;;;;;;;;;;6.20;90.30;;;;;;5074632;28;19935;-86
2022/11/08 01:08:12;;;;;;;;;;;6.20;90.80;;;;;;5074558;28;19948;-86
2022/11/08 01:10:41;;;;;;;;;;;6.10;91.00;;;;;;5055550;28;19950;-86
2022/11/08 01:13:07;;;;;;;;;;;6.20;91.00;;;;;;5074457;28;19969;-86
2022/11/08 01:15:33;;;;;;;;;;;6.20;90.90;;;;;;5074425;28;20053;-86
2022/11/08 01:17:59;;;;;;;;;;;6.20;90.90;;;;;;5074340;28;19949;-86
2022/11/08 01:20:24;;;;;;;;;;;6.20;90.90;;;;;;5073520;28;19944;-87
2022/11/08 01:22:50;;;;;;;;;;;6.30;90.80;;;;;;5074216;28;19981;-86
2022/11/08 01:25:15;;;;;;;;;;;6.30;90.70;;;;;;5072946;28;20335;-86
2022/11/08 01:27:42;;;;;;;;;;;6.40;90.50;;;;;;5074170;28;20378;-86
2022/11/08 01:30:08;;;;;;;;;;;6.30;90.00;;;;;;5073224;28;20033;-86
2022/11/08 01:32:33;;;;;;;;;;;6.30;89.80;;;;;;5072685;28;19947;-86
2022/11/08 01:34:59;;;;;;;;;;;6.20;90.00;;;;;;5073600;28;19943;-86
2022/11/08 01:37:24;;;;;;;;;;;6.20;90.20;;;;;;5073993;28;20405;-86
2022/11/08 01:39:50;;;;;;;;;;;6.20;90.30;;;;;;5073202;28;19954;-86
2022/11/08 01:42:15;;;;;;;;;;;6.20;89.90;;;;;;5073874;28;20094;-86
2022/11/08 01:44:59;;;;;;;;;;;6.00;89.40;;;;;;5073849;28;20027;-86
2022/11/08 01:47:25;;;;;;;;;;;6.10;88.50;;;;;;5074019;28;19992;-86
2022/11/08 01:49:52;;;;;;;;;;;6.10;88.00;;;;;;5072937;28;20030;-86
2022/11/08 01:52:27;;;;;;;;;;;6.00;87.90;;;;;;5073546;28;19960;-86
2022/11/08 01:54:52;;;;;;;;;;;6.10;87.20;;;;;;5072423;28;19960;-86
2022/11/08 01:57:41;;;;;;;;;;;6.20;87.90;;;;;;5072818;28;20298;-86
2022/11/08 02:00:09;;;;;;;;;;;6.30;87.00;;;;;;5059450;28;19938;-86
2022/11/08 02:02:35;;;;;;;;;;;6.30;86.60;;;;;;5073400;28;20054;-86
2022/11/08 02:05:03;;;;;;;;;;;6.20;86.30;;;;;;5073502;28;19941;-86
2022/11/08 02:07:29;;;;;;;;;;;6.20;86.30;;;;;;5073432;28;19994;-86
2022/11/08 02:09:56;;;;;;;;;;;6.20;86.00;;;;;;5071992;28;19946;-86
2022/11/08 02:12:22;;;;;;;;;;;6.30;86.00;;;;;;5072359;28;20433;-86
2022/11/08 02:14:47;;;;;;;;;;;6.40;85.00;;;;;;5073349;28;19983;-86
2022/11/08 02:17:13;;;;;;;;;;;6.40;85.10;;;;;;5073305;28;19942;-86
2022/11/08 02:19:43;;;;;;;;;;;6.20;86.60;;;;;;5072614;28;19943;-86
2022/11/08 02:22:21;;;;;;;;;;;6.20;88.10;;;;;;5072437;28;19965;-86
2022/11/08 02:24:47;;;;;;;;;;;6.20;88.70;;;;;;5053904;28;20288;-86
2022/11/08 02:27:12;;;;;;;;;;;6.00;89.20;;;;;;5072272;28;19940;-86
2022/11/08 02:29:38;;;;;;;;;;;5.90;88.90;;;;;;5072995;28;20028;-86
2022/11/08 02:32:04;;;;;;;;;;;6.00;88.30;;;;;;5073190;28;19938;-86
2022/11/08 02:34:41;;;;;;;;;;;6.10;87.90;;;;;;5073094;28;19946;-86
2022/11/08 02:37:07;;;;;;;;;;;6.10;87.60;;;;;;5072346;28;20279;-86
2022/11/08 02:39:33;;;;;;;;;;;6.10;86.90;;;;;;5071566;28;19949;-86
2022/11/08 02:41:59;;;;;;;;;;;6.10;85.60;;;;;;5073545;28;20303;-86
2022/11/08 02:44:24;;;;;;;;;;;6.00;85.70;;;;;;5055238;28;20406;-86
2022/11/08 02:46:50;;;;;;;;;;;6.10;85.90;;;;;;5072231;28;20025;-86
2022/11/08 02:49:15;;;;;;;;;;;6.20;86.00;;;;;;5072439;28;19985;-86
2022/11/08 02:51:41;;;;;;;;;;;6.00;86.00;;;;;;5072850;28;20019;-86
2022/11/08 02:54:06;;;;;;;;;;;6.00;86.10;;;;;;5072300;28;19938;-86
2022/11/08 02:56:32;;;;;;;;;;;5.90;87.40;;;;;;5072394;28;19948;-86
2022/11/08 02:58:57;;;;;;;;;;;5.80;88.20;;;;;;5072817;28;20310;-85
2022/11/08 03:01:23;;;;;;;;;;;5.60;88.80;;;;;;5072802;28;20030;-86
2022/11/08 03:03:48;;;;;;;;;;;5.60;89.40;;;;;;5072757;28;20363;-86
2022/11/08 03:06:14;;;;;;;;;;;5.60;89.60;;;;;;5072087;28;19951;-86
2022/11/08 03:08:40;;;;;;;;;;;5.60;89.40;;;;;;5073360;28;20005;-86
2022/11/08 03:11:05;;;;;;;;;;;5.60;89.60;;;;;;5075558;28;19961;-86
2022/11/08 03:13:31;;;;;;;;;;;5.70;89.00;;;;;;5076676;28;20320;-86
2022/11/08 03:15:56;;;;;;;;;;;5.80;88.80;;;;;;5075897;28;20000;-86
2022/11/08 03:18:22;;;;;;;;;;;5.90;88.00;;;;;;5076636;28;19939;-86
2022/11/08 03:20:47;;;;;;;;;;;5.80;87.50;;;;;;5076600;28;19938;-86
2022/11/08 03:23:13;;;;;;;;;;;5.60;86.50;;;;;;5076448;28;19961;-86
2022/11/08 03:25:38;;;;;;;;;;;5.30;86.60;;;;;;5074685;28;19948;-86
2022/11/08 03:28:05;;;;;;;;;;;5.20;87.00;;;;;;5076707;28;19941;-86
2022/11/08 03:30:31;;;;;;;;;;;5.20;87.90;;;;;;5075372;28;20453;-86
2022/11/08 03:32:56;;;;;;;;;;;5.30;88.50;;;;;;5058401;28;19947;-86
2022/11/08 03:35:22;;;;;;;;;;;5.30;88.50;;;;;;5075641;28;19989;-86
2022/11/08 03:37:51;;;;;;;;;;;5.30;88.70;;;;;;5076283;28;19942;-86
2022/11/08 03:40:17;;;;;;;;;;;5.40;89.00;;;;;;5075703;28;19944;-85
2022/11/08 03:42:43;;;;;;;;;;;5.20;89.40;;;;;;5076154;28;20014;-86
2022/11/08 03:45:10;;;;;;;;;;;5.20;90.00;;;;;;5076178;28;20342;-86
2022/11/08 03:47:39;;;;;;;;;;;5.30;90.70;;;;;;5076370;28;19968;-86
2022/11/08 03:50:07;;;;;;;;;;;5.40;90.80;;;;;;5075623;28;19937;-86
2022/11/08 03:53:02;;;;;;;;;;;5.30;90.70;;;;;;5075802;28;19965;-86
2022/11/08 03:55:28;;;;;;;;;;;5.30;90.90;;;;;;5065755;28;19982;-86
2022/11/08 03:57:53;;;;;;;;;;;5.40;91.10;;;;;;5075961;28;19978;-86
2022/11/08 04:00:21;;;;;;;;;;;5.40;91.20;;;;;;5075383;28;19989;-86
2022/11/08 04:02:46;;;;;;;;;;;5.40;91.20;;;;;;5075748;28;19960;-86
2022/11/08 04:05:13;;;;;;;;;;;5.50;91.20;;;;;;5075831;28;19937;-86
2022/11/08 04:07:39;;;;;;;;;;;5.60;91.30;;;;;;5075780;28;19950;-86
2022/11/08 04:10:05;;;;;;;;;;;5.80;91.10;;;;;;5074624;28;19941;-86
2022/11/08 04:15:15;;;;;;;;;;;6.20;89.70;;;;;;5075964;28;19991;-86
2022/11/08 04:23:10;;;;;;;;;;;5.90;86.20;;;;;;5075447;28;20370;-86
2022/11/08 04:25:35;;;;;;;;;;;5.80;86.00;;;;;;5074725;28;19947;-85
2022/11/08 04:28:01;;;;;;;;;;;5.70;86.60;;;;;;5075337;28;19998;-86
2022/11/08 04:30:27;;;;;;;;;;;5.60;87.40;;;;;;5074470;28;20090;-86
2022/11/08 04:32:52;;;;;;;;;;;5.70;88.20;;;;;;5075317;28;20056;-86
2022/11/08 04:35:18;;;;;;;;;;;5.70;88.50;;;;;;5073900;28;19950;-86
2022/11/08 04:37:43;;;;;;;;;;;5.70;88.70;;;;;;5074497;28;19971;-86
2022/11/08 04:40:09;;;;;;;;;;;5.80;88.70;;;;;;5073933;28;20323;-86
2022/11/08 04:42:35;;;;;;;;;;;5.90;88.70;;;;;;5075054;28;20398;-86
2022/11/08 04:45:00;;;;;;;;;;;6.00;88.50;;;;;;5074510;28;19952;-86
2022/11/08 04:47:26;;;;;;;;;;;6.00;88.20;;;;;;5075074;28;19938;-87
2022/11/08 04:49:53;;;;;;;;;;;6.00;87.70;;;;;;5074318;28;19960;-86
2022/11/08 04:52:18;;;;;;;;;;;5.90;87.20;;;;;;5074747;28;19959;-86
2022/11/08 04:54:44;;;;;;;;;;;5.80;86.60;;;;;;5074849;28;20311;-86
2022/11/08 04:57:10;;;;;;;;;;;5.60;85.80;;;;;;5074508;28;19950;-86
2022/11/08 04:59:36;;;;;;;;;;;5.50;85.90;;;;;;5074241;28;19948;-86
2022/11/08 05:02:01;;;;;;;;;;;5.40;86.00;;;;;;5074876;28;20331;-86
2022/11/08 05:04:27;;;;;;;;;;;5.30;86.40;;;;;;5074672;28;20354;-86
2022/11/08 05:06:52;;;;;;;;;;;5.10;86.20;;;;;;5056015;28;19948;-86
2022/11/08 05:09:18;;;;;;;;;;;5.00;86.70;;;;;;5074658;28;19952;-86
2022/11/08 05:11:43;;;;;;;;;;;5.10;87.60;;;;;;5072839;28;19953;-86
2022/11/08 05:14:09;;;;;;;;;;;5.20;87.50;;;;;;5074511;28;20040;-86
2022/11/08 05:16:34;;;;;;;;;;;5.20;87.60;;;;;;5073816;28;19953;-86
2022/11/08 05:19:00;;;;;;;;;;;5.20;87.60;;;;;;5074454;28;19948;-86
2022/11/08 05:24:10;;;;;;;;;;;5.20;88.00;;;;;;5074635;28;20405;-86
2022/11/08 05:26:37;;;;;;;;;;;5.20;87.50;;;;;;5073528;28;20407;-86
2022/11/08 05:29:03;;;;;;;;;;;5.10;86.80;;;;;;5074117;28;19943;-86
2022/11/08 05:31:29;;;;;;;;;;;5.00;87.90;;;;;;5073041;28;20001;-85
2022/11/08 05:33:54;;;;;;;;;;;5.00;89.00;;;;;;5074127;28;19971;-86
2022/11/08 05:36:20;;;;;;;;;;;5.00;88.90;;;;;;5073421;28;19953;-86
2022/11/08 05:38:45;;;;;;;;;;;4.90;88.80;;;;;;5073983;28;19956;-86
2022/11/08 05:41:12;;;;;;;;;;;4.70;90.20;;;;;;5072162;28;19942;-86
2022/11/08 05:43:38;;;;;;;;;;;4.60;91.10;;;;;;5072510;28;19942;-85
2022/11/08 05:46:04;;;;;;;;;;;4.40;91.00;;;;;;5073879;28;19964;-86
2022/11/08 05:48:29;;;;;;;;;;;4.20;91.70;;;;;;5067840;28;19942;-85
2022/11/08 05:50:55;;;;;;;;;;;4.20;92.20;;;;;;5065559;28;20510;-86
2022/11/08 05:53:21;;;;;;;;;;;4.30;92.40;;;;;;5073648;28;20020;-86
2022/11/08 05:55:47;;;;;;;;;;;4.30;92.50;;;;;;5071505;28;20474;-86
2022/11/08 05:58:12;;;;;;;;;;;4.40;92.60;;;;;;5072839;28;19943;-86
2022/11/08 06:00:38;;;;;;;;;;;4.40;92.60;;;;;;5070794;28;20396;-86
2022/11/08 06:03:04;;;;;;;;;;;4.40;92.70;;;;;;5072709;28;20063;-86
2022/11/08 06:05:30;;;;;;;;;;;4.50;92.80;;;;;;5071109;28;19945;-86
2022/11/08 06:07:55;;;;;;;;;;;4.70;92.70;;;;;;5072872;28;19995;-86
2022/11/08 06:10:21;;;;;;;;;;;4.90;92.40;;;;;;5070381;28;19939;-86
2022/11/08 06:12:46;;;;;;;;;;;5.00;92.00;;;;;;5073466;28;20302;-86
2022/11/08 06:15:12;;;;;;;;;;;5.10;91.30;;;;;;5054718;28;20413;-86
2022/11/08 06:17:37;;;;;;;;;;;5.20;90.30;;;;;;5073133;28;20414;-86
2022/11/08 06:20:06;;;;;;;;;;;5.20;89.70;;;;;;5072032;28;20395;-86
2022/11/08 06:22:31;;;;;;;;;;;5.10;89.80;;;;;;5054563;28;19959;-86
2022/11/08 06:24:57;;;;;;;;;;;5.10;89.60;;;;;;5053624;28;20428;-86
2022/11/08 06:27:22;;;;;;;;;;;5.20;89.30;;;;;;5073190;28;20070;-86
2022/11/08 06:29:48;;;;;;;;;;;5.30;89.50;;;;;;5086695;22;19982;-86
2022/11/08 06:32:13;;;;;;;;;;;5.50;89.70;;;;;;5081983;28;20433;-86
2022/11/08 06:34:40;;;;;;;;;;;5.70;89.80;;;;;;5082327;28;20441;-87
2022/11/08 06:37:05;;;;;;;;;;;6.10;89.70;;;;;;5092172;28;19947;-86
2022/11/08 06:39:31;;;;;;;;;;;6.30;88.70;;;;;;5091371;28;19945;-86
2022/11/08 06:41:57;;;;;;;;;;;6.40;86.90;;;;;;5090263;28;20311;-86
2022/11/08 06:44:22;;;;;;;;;;;6.30;87.00;;;;;;5085847;28;20328;-86
2022/11/08 06:46:48;;;;;;;;;;;6.30;87.50;;;;;;5087800;28;19951;-86
2022/11/08 06:49:13;;;;;;;;;;;6.40;87.80;;;;;;5084192;28;19959;-86
2022/11/08 06:51:39;;;;;;;;;;;6.40;87.20;;;;;;5087595;28;19964;-86
2022/11/08 06:54:06;;;;;;;;;;;6.50;87.00;;;;;;5090844;28;19944;-86
2022/11/08 06:56:34;;;;;;;;;;;6.70;86.30;;;;;;5091579;28;20050;-86
2022/11/08 06:59:00;;;;;;;;;;;6.70;85.80;;;;;;5089452;28;19997;-86
2022/11/08 07:01:25;;;;;;;;;;;6.70;85.70;;;;;;5089374;28;19964;-87
2022/11/08 07:03:51;;;;;;;;;;;6.70;85.90;;;;;;5090322;28;19956;-87
2022/11/08 07:06:16;;;;;;;;;;;6.50;86.10;;;;;;5091003;28;20039;-86
2022/11/08 07:08:42;;;;;;;;;;;6.50;86.50;;;;;;5091494;28;19992;-87
2022/11/08 07:11:08;;;;;;;;;;;6.50;87.20;;;;;;5091309;28;19991;-86
2022/11/08 07:13:34;;;;;;;;;;;6.70;87.40;;;;;;5073390;28;20059;-86
2022/11/08 07:16:00;;;;;;;;;;;7.10;87.50;;;;;;5086790;28;20449;-86
2022/11/08 07:18:26;;;;;;;;;;;7.50;86.40;;;;;;5086988;28;19991;-86
2022/11/08 07:20:51;;;;;;;;;;;7.60;84.40;;;;;;5088835;28;19948;-86
2022/11/08 07:23:17;;;;;;;;;;;7.60;84.60;;;;;;5091989;28;19962;-86
2022/11/08 07:25:43;;;;;;;;;;;7.40;84.90;;;;;;5087064;28;19948;-86
2022/11/08 07:28:13;;;;;;;;;;;7.30;86.40;;;;;;5088950;28;20482;-86
2022/11/08 07:30:39;;;;;;;;;;;7.30;87.10;;;;;;5088276;28;19953;-87
2022/11/08 07:33:04;;;;;;;;;;;7.30;87.40;;;;;;5090638;28;20404;-87
2022/11/08 07:35:30;;;;;;;;;;;7.30;87.80;;;;;;5090526;28;20384;-87
2022/11/08 07:37:55;;;;;;;;;;;7.40;88.30;;;;;;5088331;28;19958;-86
2022/11/08 07:40:21;;;;;;;;;;;7.80;88.60;;;;;;5089148;28;19943;-86
2022/11/08 07:42:47;;;;;;;;;;;8.20;88.10;;;;;;5091197;28;19965;-87
2022/11/08 07:45:12;;;;;;;;;;;8.50;87.40;;;;;;5089539;28;20320;-87
2022/11/08 07:47:38;;;;;;;;;;;8.70;87.20;;;;;;5089097;28;19952;-87
2022/11/08 07:50:04;;;;;;;;;;;8.70;87.10;;;;;;5088183;28;19951;-87
2022/11/08 07:52:29;;;;;;;;;;;9.10;86.90;;;;;;5089657;28;19958;-87
2022/11/08 07:54:55;;;;;;;;;;;9.30;86.20;;;;;;5090752;28;20029;-87
2022/11/08 07:57:20;;;;;;;;;;;9.30;86.10;;;;;;5093427;28;20055;-87
2022/11/08 07:59:46;;;;;;;;;;;9.40;85.10;;;;;;5092062;28;19945;-86
2022/11/08 08:02:12;;;;;;;;;;;9.60;84.20;;;;;;5094680;28;20337;-86
2022/11/08 08:04:38;;;;;;;;;;;9.60;84.00;;;;;;5092447;28;19944;-87
2022/11/08 08:07:03;;;;;;;;;;;9.60;84.00;;;;;;5093922;28;20429;-86
2022/11/08 08:09:29;;;;;;;;;;;9.80;84.10;;;;;;5090742;28;19948;-87
2022/11/08 08:11:54;;;;;;;;;;;9.90;84.30;;;;;;5092071;28;20395;-87
2022/11/08 08:14:20;;;;;;;;;;;10.20;83.90;;;;;;5091615;28;19948;-87
2022/11/08 08:16:46;;;;;;;;;;;10.40;83.30;;;;;;5091949;28;20464;-87
2022/11/08 08:19:11;;;;;;;;;;;10.70;82.70;;;;;;5093686;28;20417;-87
2022/11/08 08:21:37;;;;;;;;;;;10.90;81.50;;;;;;5093802;28;19963;-87
2022/11/08 08:24:02;;;;;;;;;;;11.20;80.00;;;;;;5093131;28;19942;-86
2022/11/08 08:26:28;;;;;;;;;;;11.30;78.60;;;;;;5092661;28;19945;-87
2022/11/08 08:28:53;;;;;;;;;;;11.40;78.40;;;;;;5093886;28;20034;-86
2022/11/08 08:31:19;;;;;;;;;;;11.50;77.80;;;;;;5089438;28;19943;-87
2022/11/08 08:33:44;;;;;;;;;;;11.70;76.30;;;;;;5091859;28;20051;-87
2022/11/08 08:36:10;;;;;;;;;;;11.80;76.30;;;;;;5094140;28;19995;-87
2022/11/08 08:38:36;;;;;;;;;;;11.90;76.20;;;;;;5090053;28;19942;-87
2022/11/08 08:41:01;;;;;;;;;;;12.10;75.80;;;;;;5092316;28;20003;-87
2022/11/08 08:43:27;;;;;;;;;;;11.90;76.10;;;;;;5091648;28;20393;-86
2022/11/08 08:45:53;;;;;;;;;;;11.70;76.80;;;;;;5087521;28;19942;-86
2022/11/08 08:48:19;;;;;;;;;;;11.70;76.00;;;;;;5083943;28;21435;-87
2022/11/08 08:50:45;;;;;;;;;;;11.60;76.40;;;;;;5090331;28;20614;-87
2022/11/08 08:53:11;;;;;;;;;;;11.80;77.00;;;;;;5084740;28;20598;-87
2022/11/08 08:55:37;;;;;;;;;;;12.10;77.10;;;;;;5089422;28;20001;-87
2022/11/08 08:58:03;;;;;;;;;;;12.30;76.20;;;;;;5090452;28;20372;-86
2022/11/08 09:00:29;;;;;;;;;;;12.50;74.40;;;;;;5092275;28;20263;-87
2022/11/08 09:02:54;;;;;;;;;;;12.70;73.30;;;;;;5089356;28;20008;-86
2022/11/08 09:05:20;;;;;;;;;;;12.90;72.40;;;;;;5090972;28;20354;-87
2022/11/08 09:07:45;;;;;;;;;;;13.00;72.60;;;;;;5092530;28;20357;-87
2022/11/08 09:10:11;;;;;;;;;;;13.20;71.80;;;;;;5089367;28;19949;-87
2022/11/08 09:12:36;;;;;;;;;;;13.30;72.10;;;;;;5088700;28;19983;-87
2022/11/08 09:15:03;;;;;;;;;;;13.10;72.60;;;;;;5096659;28;20388;-87
2022/11/08 09:17:28;;;;;;;;;;;13.10;72.40;;;;;;5090507;28;19942;-87
2022/11/08 09:19:54;;;;;;;;;;;13.10;73.00;;;;;;5087050;28;19945;-87
2022/11/08 09:22:19;;;;;;;;;;;13.30;71.90;;;;;;5087624;28;20447;-87
2022/11/08 09:24:45;;;;;;;;;;;13.30;71.80;;;;;;5077290;28;19954;-86
2022/11/08 09:27:10;;;;;;;;;;;13.30;71.50;;;;;;5089959;28;19955;-87
2022/11/08 09:29:36;;;;;;;;;;;13.30;71.00;;;;;;5090440;28;19976;-87
2022/11/08 09:32:01;;;;;;;;;;;13.30;71.50;;;;;;5083527;28;19994;-87
2022/11/08 09:34:27;;;;;;;;;;;13.40;71.60;;;;;;5088660;28;19943;-87
2022/11/08 09:36:53;;;;;;;;;;;13.40;71.10;;;;;;5089112;28;20034;-86
2022/11/08 09:39:18;;;;;;;;;;;13.50;71.10;;;;;;5084352;28;20031;-87
2022/11/08 09:41:44;;;;;;;;;;;13.50;71.40;;;;;;5085785;28;19956;-87
2022/11/08 09:44:16;;;;;;;;;;;13.70;70.90;;;;;;5085847;28;19949;-87
2022/11/08 09:46:44;;;;;;;;;;;13.60;69.80;;;;;;5086872;28;20393;-87
2022/11/08 09:49:15;;;;;;;;;;;13.70;70.40;;;;;;5086236;28;19944;-87
2022/11/08 09:51:41;;;;;;;;;;;13.90;69.60;;;;;;5087786;28;19964;-87
2022/11/08 09:54:12;;;;;;;;;;;14.10;69.20;;;;;;5090010;28;19950;-87
2022/11/08 09:56:38;;;;;;;;;;;14.30;68.20;;;;;;5081800;28;20422;-87
2022/11/08 09:59:03;;;;;;;;;;;14.40;66.90;;;;;;5086002;28;19942;-87
2022/11/08 10:01:32;;;;;;;;;;;14.50;67.10;;;;;;5085784;28;20434;-87
2022/11/08 10:04:04;;;;;;;;;;;14.40;65.60;;;;;;5087486;28;19954;-87
2022/11/08 10:06:32;;;;;;;;;;;14.10;66.70;;;;;;5086819;28;20038;-87
2022/11/08 10:08:58;;;;;;;;;;;14.00;67.70;;;;;;5087408;28;21473;-87
2022/11/08 10:11:37;;;;;;;;;;;13.90;67.90;;;;;;5084239;28;20037;-87
2022/11/08 10:14:13;;;;;;;;;;;13.80;69.00;;;;;;5088878;28;20410;-87
2022/11/08 10:16:54;;;;;;;;;;;13.70;69.20;;;;;;5088571;28;20448;-87
2022/11/08 10:19:35;;;;;;;;;;;13.90;69.30;;;;;;5083645;28;20354;-87
2022/11/08 10:22:04;;;;;;;;;;;14.10;68.70;;;;;;5084616;28;19978;-87
2022/11/08 10:24:42;;;;;;;;;;;14.20;68.20;;;;;;5085088;28;20363;-87
2022/11/08 10:27:22;;;;;;;;;;;14.10;68.50;;;;;;5087034;28;19950;-87
2022/11/08 10:29:50;;;;;;;;;;;14.10;69.50;;;;;;5087760;28;20005;-87
2022/11/08 10:32:20;;;;;;;;;;;14.40;68.40;;;;;;5085622;28;20469;-87
2022/11/08 10:34:56;;;;;;;;;;;14.60;68.00;;;;;;5087797;28;19948;-87
2022/11/08 10:37:22;;;;;;;;;;;14.80;67.10;;;;;;5088764;28;19952;-87
2022/11/08 10:39:58;;;;;;;;;;;14.30;68.00;;;;;;5089259;28;19942;-87
2022/11/08 10:42:40;;;;;;;;;;;14.20;68.50;;;;;;5087776;28;20389;-87
2022/11/08 10:45:07;;;;;;;;;;;14.30;68.80;;;;;;5087241;28;19973;-87
2022/11/08 10:47:33;;;;;;;;;;;14.60;68.40;;;;;;5090925;28;20091;-87
2022/11/08 10:49:58;;;;;;;;;;;14.80;67.20;;;;;;5084563;28;20052;-87
2022/11/08 10:52:33;;;;;;;;;;;15.10;66.00;;;;;;5088965;28;20106;-87
2022/11/08 10:55:00;;;;;;;;;;;15.30;65.30;;;;;;5086850;28;19947;-87
2022/11/08 10:57:31;;;;;;;;;;;15.50;64.50;;;;;;5072059;28;19995;-87
2022/11/08 11:00:15;;;;;;;;;;;15.90;62.80;;;;;;5092185;28;19950;-87
2022/11/08 11:02:41;;;;;;;;;;;15.80;61.80;;;;;;5087574;28;19967;-87
2022/11/08 11:05:20;;;;;;;;;;;15.80;61.80;;;;;;5083976;28;20306;-87
2022/11/08 11:07:46;;;;;;;;;;;15.80;61.30;;;;;;5089589;28;19949;-87
2022/11/08 11:10:25;;;;;;;;;;;15.90;61.90;;;;;;5090927;28;19944;-87
2022/11/08 11:12:58;;;;;;;;;;;16.20;60.90;;;;;;5092264;28;19946;-87
2022/11/08 11:15:29;;;;;;;;;;;16.40;60.70;;;;;;5092973;28;20386;-87
2022/11/08 11:17:55;;;;;;;;;;;16.80;60.30;;;;;;5092935;28;20442;-86
2022/11/08 11:20:21;;;;;;;;;;;16.80;58.90;;;;;;5090055;28;20045;-86
2022/11/08 11:22:47;;;;;;;;;;;17.00;58.50;;;;;;5083883;28;20014;-86
2022/11/08 11:25:15;;;;;;;;;;;17.10;58.90;;;;;;5072585;28;19950;-86
2022/11/08 11:27:41;;;;;;;;;;;17.30;58.00;;;;;;5072604;28;19947;-87
2022/11/08 11:30:24;;;;;;;;;;;17.60;56.60;;;;;;5078275;28;20001;-87
2022/11/08 11:32:57;;;;;;;;;;;17.90;56.30;;;;;;5096683;28;20034;-86
2022/11/08 11:35:24;;;;;;;;;;;17.90;53.40;;;;;;5095687;28;19947;-87
2022/11/08 11:37:49;;;;;;;;;;;18.20;54.20;;;;;;5095034;28;19958;-87
2022/11/08 11:40:15;;;;;;;;;;;18.70;53.00;;;;;;5095608;28;19950;-87
2022/11/08 11:42:49;;;;;;;;;;;19.50;52.00;;;;;;5096495;28;19965;-87
2022/11/08 11:45:38;;;;;;;;;;;20.00;48.00;;;;;;5096519;28;19954;-87
2022/11/08 11:48:09;;;;;;;;;;;21.10;47.40;;;;;;5081854;28;19955;-87
2022/11/08 11:50:36;;;;;;;;;;;22.30;44.90;;;;;;5095457;28;20001;-87
2022/11/08 11:53:06;;;;;;;;;;;22.30;42.40;;;;;;5096176;28;19978;-87
2022/11/08 11:55:40;;;;;;;;;;;22.10;43.60;;;;;;5095333;28;20055;-87
2022/11/08 11:58:29;;;;;;;;;;;21.80;42.10;;;;;;5096281;28;19992;-87
2022/11/08 12:01:09;;;;;;;;;;;21.80;43.40;;;;;;5081668;28;19952;-87
2022/11/08 12:03:42;;;;;;;;;;;21.50;43.60;;;;;;5095835;28;19978;-86
2022/11/08 12:06:11;;;;;;;;;;;21.10;44.50;;;;;;5095439;28;19946;-87
2022/11/08 12:08:54;;;;;;;;;;;21.30;44.80;;;;;;5094952;28;19943;-86
2022/11/08 12:11:35;;;;;;;;;;;21.40;45.10;;;;;;5095001;28;19949;-87
2022/11/08 12:14:14;;;;;;;;;;;21.20;45.10;;;;;;5095981;28;20502;-87
2022/11/08 12:16:45;;;;;;;;;;;20.70;45.90;;;;;;5094911;28;19959;-87
2022/11/08 12:19:16;;;;;;;;;;;20.20;46.20;;;;;;5094739;28;19948;-87
2022/11/08 12:21:50;;;;;;;;;;;19.80;48.40;;;;;;5095593;28;20472;-87
2022/11/08 12:24:16;;;;;;;;;;;19.60;49.60;;;;;;5095357;28;19946;-87
2022/11/08 12:26:41;;;;;;;;;;;19.40;48.80;;;;;;5094775;28;19955;-87
2022/11/08 12:29:16;;;;;;;;;;;19.40;49.80;;;;;;5095556;28;20023;-87
2022/11/08 12:31:41;;;;;;;;;;;19.60;50.10;;;;;;5089916;28;20063;-87
2022/11/08 12:34:27;;;;;;;;;;;19.80;48.10;;;;;;5086055;28;20392;-87
2022/11/08 12:36:59;;;;;;;;;;;19.50;48.40;;;;;;5087456;28;19943;-87
2022/11/08 12:39:24;;;;;;;;;;;19.50;49.40;;;;;;5091042;28;19941;-87
2022/11/08 12:41:50;;;;;;;;;;;19.60;49.60;;;;;;5089760;28;19974;-87
2022/11/08 12:44:18;;;;;;;;;;;19.90;48.50;;;;;;5092870;28;19953;-87
2022/11/08 12:47:03;;;;;;;;;;;20.60;46.10;;;;;;5090223;28;20037;-87
2022/11/08 12:49:47;;;;;;;;;;;21.70;44.00;;;;;;5087008;28;19944;-87
2022/11/08 12:52:31;;;;;;;;;;;22.30;43.10;;;;;;5083717;28;19943;-87
2022/11/08 12:54:59;;;;;;;;;;;23.30;39.70;;;;;;5088055;28;19941;-87
2022/11/08 12:57:27;;;;;;;;;;;23.90;39.40;;;;;;5090492;28;19945;-87
2022/11/08 13:00:05;;;;;;;;;;;24.00;37.90;;;;;;5085150;28;19942;-87
2022/11/08 13:02:37;;;;;;;;;;;23.70;39.20;;;;;;5088444;28;20416;-87
2022/11/08 13:05:10;;;;;;;;;;;23.40;38.90;;;;;;5085598;28;19940;-87
2022/11/08 13:07:40;;;;;;;;;;;23.00;39.10;;;;;;5087842;28;19944;-87
2022/11/08 13:10:26;;;;;;;;;;;22.30;41.90;;;;;;5091083;28;19949;-87
2022/11/08 13:13:24;;;;;;;;;;;21.60;42.50;;;;;;5086775;28;20315;-87
2022/11/08 13:16:25;;;;;;;;;;;20.80;45.10;;;;;;5029254;28;19946;-87
2022/11/08 13:18:52;;;;;;;;;;;20.60;45.90;;;;;;4987756;28;19959;-87
2022/11/08 13:21:26;;;;;;;;;;;20.40;46.80;;;;;;5071268;28;19945;-87
2022/11/08 13:23:52;;;;;;;;;;;20.90;46.40;;;;;;5088928;28;20043;-87
2022/11/08 13:26:17;;;;;;;;;;;21.80;43.90;;;;;;5089553;28;20421;-87
2022/11/08 13:28:44;;;;;;;;;;;22.80;42.00;;;;;;5089440;28;19949;-87
2022/11/08 13:31:19;;;;;;;;;;;23.70;39.90;;;;;;5090372;28;20025;-87
2022/11/08 13:34:00;;;;;;;;;;;24.10;38.60;;;;;;5085719;28;20027;-87
2022/11/08 13:36:41;;;;;;;;;;;24.00;39.30;;;;;;5087645;28;19947;-87
2022/11/08 13:39:07;;;;;;;;;;;23.90;39.50;;;;;;5082567;28;19978;-87
2022/11/08 13:41:52;;;;;;;;;;;23.30;39.60;;;;;;5078564;28;20044;-87
2022/11/08 13:44:36;;;;;;;;;;;23.20;39.80;;;;;;5083666;28;20142;-87
2022/11/08 13:47:02;;;;;;;;;;;22.80;40.30;;;;;;5082703;28;20318;-87
2022/11/08 13:49:27;;;;;;;;;;;21.50;43.10;;;;;;5088419;28;19950;-87
2022/11/08 13:52:13;;;;;;;;;;;20.80;45.80;;;;;;5079437;28;19959;-87
2022/11/08 13:54:49;;;;;;;;;;;20.70;46.50;;;;;;5085169;28;19982;-87
2022/11/08 13:57:18;;;;;;;;;;;20.70;47.30;;;;;;5082951;28;19951;-87
2022/11/08 13:59:44;;;;;;;;;;;21.30;46.10;;;;;;5087033;28;19949;-87
2022/11/08 14:02:21;;;;;;;;;;;22.00;42.90;;;;;;5088442;28;19971;-87
2022/11/08 14:04:47;;;;;;;;;;;22.00;43.60;;;;;;5087834;28;20055;-87
2022/11/08 14:07:18;;;;;;;;;;;22.40;42.30;;;;;;5085876;28;20482;-88
2022/11/08 14:09:55;;;;;;;;;;;22.80;41.00;;;;;;5084846;28;19998;-87
2022/11/08 14:12:28;;;;;;;;;;;22.50;41.60;;;;;;5091401;28;19949;-87
2022/11/08 14:15:18;;;;;;;;;;;21.90;42.90;;;;;;5089145;28;20398;-87
2022/11/08 14:18:00;;;;;;;;;;;21.50;44.00;;;;;;5086815;28;19993;-87
2022/11/08 14:20:33;;;;;;;;;;;20.80;46.30;;;;;;5066735;28;20360;-86
2022/11/08 14:23:09;;;;;;;;;;;20.00;48.10;;;;;;5085659;28;20049;-87
2022/11/08 14:25:36;;;;;;;;;;;19.40;50.30;;;;;;5081253;28;21683;-87
2022/11/08 14:28:02;;;;;;;;;;;18.80;52.40;;;;;;5086446;28;19946;-86
2022/11/08 14:30:27;;;;;;;;;;;18.20;53.40;;;;;;5089940;22;19983;-86
2022/11/08 14:33:13;;;;;;;;;;;17.80;54.80;;;;;;5091882;28;20336;-86
2022/11/08 14:35:39;;;;;;;;;;;17.50;56.00;;;;;;5088117;28;19944;-87
2022/11/08 14:38:12;;;;;;;;;;;17.30;57.00;;;;;;5089423;28;19947;-86
2022/11/08 14:40:38;;;;;;;;;;;17.30;57.50;;;;;;5087438;28;19938;-86
2022/11/08 14:43:03;;;;;;;;;;;17.30;58.10;;;;;;5090333;28;19968;-87
2022/11/08 14:45:29;;;;;;;;;;;17.30;58.40;;;;;;5089515;28;19975;-87
2022/11/08 14:48:01;;;;;;;;;;;17.20;62.60;;;;;;5084401;28;19944;-87
2022/11/08 14:50:29;;;;;;;;;;;16.80;62.80;;;;;;5090376;28;20015;-86